Time;durP1;ratioP1;P1;durP2;ratioP2;P2;SDS_P1;SDS_P2;PMS_P1;PMS_P2;Temp;Humidity;BMP_temperature;BMP_pressure;BME280_temperature;BME280_humidity;BME280_pressure;Samples;Min_cycle;Max_cycle;Signal;HPM_P1;HPM_P2
2021/06/08 00:00:11;;;;;;;5.43;4.85;;;18.90;99.90;;;;;;2107023;27;20022;-68
2021/06/08 00:01:12;;;;;;;4.55;4.15;;;18.90;99.90;;;;;;2116050;27;20023;-68
2021/06/08 00:02:13;;;;;;;4.47;4.18;;;18.90;99.90;;;;;;2079041;28;20487;-68
2021/06/08 00:03:13;;;;;;;6.82;4.32;;;18.80;99.90;;;;;;2081832;28;20033;-68
2021/06/08 00:04:14;;;;;;;5.18;3.83;;;18.80;99.90;;;;;;2087875;28;20025;-68
2021/06/08 00:05:15;;;;;;;4.95;4.47;;;18.80;99.90;;;;;;2087635;28;20465;-68
2021/06/08 00:06:16;;;;;;;4.82;4.43;;;18.80;99.90;;;;;;2087931;28;20029;-68
2021/06/08 00:07:16;;;;;;;5.03;4.63;;;18.70;99.90;;;;;;2081370;28;20061;-68
2021/06/08 00:08:17;;;;;;;4.93;4.53;;;18.70;99.90;;;;;;2083339;28;20033;-68
2021/06/08 00:09:18;;;;;;;6.20;4.93;;;18.70;99.90;;;;;;2084822;28;20017;-68
2021/06/08 00:10:19;;;;;;;5.55;4.57;;;18.70;99.90;;;;;;2079616;28;20037;-68
2021/06/08 00:11:20;;;;;;;4.85;4.10;;;18.70;99.90;;;;;;2079283;28;20013;-68
2021/06/08 00:12:21;;;;;;;6.13;5.53;;;18.60;99.90;;;;;;2079248;28;20029;-68
2021/06/08 00:13:21;;;;;;;6.53;4.97;;;18.60;99.90;;;;;;2079264;28;20032;-68
2021/06/08 00:14:22;;;;;;;4.60;4.20;;;18.60;99.90;;;;;;2080037;28;20045;-68
2021/06/08 00:15:23;;;;;;;5.25;4.78;;;18.60;99.90;;;;;;2087258;28;20436;-68
2021/06/08 00:16:24;;;;;;;10.52;4.50;;;18.60;99.90;;;;;;2087746;28;20166;-68
2021/06/08 00:17:24;;;;;;;4.68;4.28;;;18.50;99.90;;;;;;2087776;28;20029;-68
2021/06/08 00:18:25;;;;;;;5.32;4.82;;;18.50;99.90;;;;;;2080865;28;20022;-68
2021/06/08 00:19:25;;;;;;;5.65;4.82;;;18.50;99.90;;;;;;2081616;28;20081;-68
2021/06/08 00:20:26;;;;;;;5.03;4.57;;;18.50;99.90;;;;;;2087722;28;20480;-68
2021/06/08 00:21:27;;;;;;;5.45;4.95;;;18.50;99.90;;;;;;2087460;28;20029;-68
2021/06/08 00:22:28;;;;;;;4.78;4.43;;;18.50;99.90;;;;;;2087205;28;20052;-68
2021/06/08 00:23:29;;;;;;;6.25;4.60;;;18.40;99.90;;;;;;2080229;28;20024;-68
2021/06/08 00:24:30;;;;;;;5.75;4.70;;;18.40;99.90;;;;;;2080621;28;20029;-68
2021/06/08 00:25:30;;;;;;;5.45;4.95;;;18.40;99.90;;;;;;2077398;28;20029;-68
2021/06/08 00:26:33;;;;;;;7.10;5.10;;;18.40;99.90;;;;;;2083523;27;20030;-68
2021/06/08 00:27:33;;;;;;;4.93;4.53;;;18.40;99.90;;;;;;2075665;28;20477;-68
2021/06/08 00:28:34;;;;;;;6.55;5.28;;;18.40;99.90;;;;;;2083139;28;20401;-68
2021/06/08 00:29:35;;;;;;;5.18;4.72;;;18.30;99.90;;;;;;2081388;28;20065;-68
2021/06/08 00:30:36;;;;;;;4.95;4.50;;;18.40;99.90;;;;;;2083491;28;20047;-68
2021/06/08 00:31:36;;;;;;;5.38;4.85;;;18.30;99.90;;;;;;2082277;28;20393;-68
2021/06/08 00:32:37;;;;;;;5.22;4.57;;;18.30;99.90;;;;;;2078804;28;20388;-68
2021/06/08 00:33:38;;;;;;;4.95;4.45;;;18.30;99.90;;;;;;2079392;28;20026;-68
2021/06/08 00:34:38;;;;;;;4.70;4.15;;;18.30;99.90;;;;;;2083440;28;20021;-68
2021/06/08 00:35:39;;;;;;;4.63;4.22;;;18.30;99.90;;;;;;2084599;27;20034;-68
2021/06/08 00:36:39;;;;;;;4.38;3.97;;;18.30;99.90;;;;;;2087547;28;20092;-68
2021/06/08 00:37:40;;;;;;;6.53;4.50;;;18.30;99.90;;;;;;2084572;28;20045;-68
2021/06/08 00:38:41;;;;;;;5.80;4.30;;;18.30;99.90;;;;;;2079149;28;20586;-68
2021/06/08 00:39:41;;;;;;;6.57;4.80;;;18.20;99.90;;;;;;2071643;28;20054;-68
2021/06/08 00:40:44;;;;;;;5.60;5.00;;;18.30;99.90;;;;;;2075906;28;20033;-68
2021/06/08 00:41:44;;;;;;;5.32;4.85;;;18.20;99.90;;;;;;2078617;28;20440;-68
2021/06/08 00:42:45;;;;;;;6.25;5.65;;;18.20;99.90;;;;;;2078818;28;20483;-68
2021/06/08 00:43:46;;;;;;;5.75;5.28;;;18.20;99.90;;;;;;2082272;28;20021;-68
2021/06/08 00:44:46;;;;;;;6.63;5.07;;;18.20;99.90;;;;;;2084027;28;20611;-68
2021/06/08 00:45:47;;;;;;;4.65;4.28;;;18.20;99.90;;;;;;2085650;28;20035;-68
2021/06/08 00:46:48;;;;;;;5.70;4.07;;;18.20;99.90;;;;;;2084191;28;20031;-68
2021/06/08 00:47:50;;;;;;;4.82;4.35;;;18.20;99.90;;;;;;2093880;27;20029;-68
2021/06/08 00:48:50;;;;;;;5.13;4.55;;;18.20;99.90;;;;;;2099167;27;20047;-68
2021/06/08 00:49:52;;;;;;;5.93;5.05;;;18.20;99.90;;;;;;2079475;28;20405;-68
2021/06/08 00:50:52;;;;;;;5.15;4.65;;;18.20;99.90;;;;;;2079021;28;20463;-68
2021/06/08 00:51:53;;;;;;;5.50;5.10;;;18.20;99.90;;;;;;2081251;28;20017;-68
2021/06/08 00:52:54;;;;;;;5.00;4.55;;;18.20;99.90;;;;;;2079262;28;20022;-68
2021/06/08 00:53:54;;;;;;;4.97;4.57;;;18.20;99.90;;;;;;2085320;28;20095;-68
2021/06/08 00:54:55;;;;;;;5.55;4.55;;;18.10;99.90;;;;;;2084956;28;20021;-68
2021/06/08 00:55:55;;;;;;;5.90;5.38;;;18.10;99.90;;;;;;2104027;27;20022;-68
2021/06/08 00:56:58;;;;;;;5.53;5.00;;;18.10;99.90;;;;;;2080366;27;20485;-68
2021/06/08 00:57:58;;;;;;;4.43;4.05;;;18.10;99.90;;;;;;2086108;28;20030;-68
2021/06/08 00:58:59;;;;;;;6.10;5.53;;;18.10;99.90;;;;;;2095825;27;20019;-68
2021/06/08 00:59:59;;;;;;;7.18;5.03;;;18.10;99.90;;;;;;2079225;28;20030;-68
2021/06/08 01:01:00;;;;;;;5.78;5.28;;;18.10;99.90;;;;;;2120730;27;20027;-68
2021/06/08 01:02:00;;;;;;;8.55;5.28;;;18.00;99.90;;;;;;2091415;27;20064;-68
2021/06/08 01:03:01;;;;;;;5.57;4.90;;;18.00;99.90;;;;;;2083273;28;20033;-68
2021/06/08 01:04:03;;;;;;;5.35;4.85;;;18.00;99.90;;;;;;2087316;28;20037;-68
2021/06/08 01:05:06;;;;;;;4.93;4.53;;;18.00;99.90;;;;;;2086579;27;20029;-68
2021/06/08 01:06:06;;;;;;;5.53;5.07;;;18.00;99.90;;;;;;2122200;27;20022;-68
2021/06/08 01:07:07;;;;;;;5.07;4.68;;;18.00;99.90;;;;;;2081033;27;20496;-68
2021/06/08 01:08:08;;;;;;;5.80;5.22;;;18.00;99.90;;;;;;2080962;28;20041;-68
2021/06/08 01:09:08;;;;;;;6.35;5.40;;;17.90;99.90;;;;;;2087543;28;20044;-68
2021/06/08 01:10:10;;;;;;;5.90;5.40;;;17.90;99.90;;;;;;2087597;28;20393;-68
2021/06/08 01:11:11;;;;;;;4.88;4.50;;;17.90;99.90;;;;;;2087487;27;20052;-68
2021/06/08 01:12:12;;;;;;;5.82;5.32;;;17.90;99.90;;;;;;2086461;27;20033;-68
2021/06/08 01:13:12;;;;;;;6.55;5.78;;;17.90;99.90;;;;;;2082429;28;20065;-68
2021/06/08 01:14:13;;;;;;;5.15;4.75;;;17.90;99.90;;;;;;2104134;27;20046;-68
2021/06/08 01:15:13;;;;;;;5.55;5.05;;;17.80;99.90;;;;;;2080275;28;20524;-68
2021/06/08 01:16:14;;;;;;;7.22;5.85;;;17.80;99.90;;;;;;2085581;28;20086;-68
2021/06/08 01:17:14;;;;;;;5.57;4.88;;;17.80;99.90;;;;;;2085938;28;20033;-68
2021/06/08 01:18:15;;;;;;;6.80;6.00;;;17.80;99.90;;;;;;2079486;28;20029;-68
2021/06/08 01:19:17;;;;;;;5.13;4.45;;;17.80;99.90;;;;;;2079760;28;20029;-68
2021/06/08 01:20:18;;;;;;;8.50;5.93;;;17.80;99.90;;;;;;2081846;28;20025;-68
2021/06/08 01:21:19;;;;;;;6.70;5.93;;;17.80;99.90;;;;;;2083659;28;20049;-68
2021/06/08 01:22:19;;;;;;;7.13;6.43;;;17.80;99.90;;;;;;2086866;28;20057;-68
2021/06/08 01:23:20;;;;;;;5.90;5.30;;;17.70;99.90;;;;;;2087374;28;20017;-68
2021/06/08 01:24:20;;;;;;;6.72;6.13;;;17.70;99.90;;;;;;2087026;27;20049;-68
2021/06/08 01:25:21;;;;;;;5.28;4.88;;;17.70;99.90;;;;;;2087055;28;20021;-68
2021/06/08 01:26:27;;;;;;;5.43;4.93;;;17.70;99.90;;;;;;2078618;28;20060;-68
2021/06/08 01:27:27;;;;;;;5.68;5.18;;;17.70;99.90;;;;;;2078875;28;20025;-68
2021/06/08 01:28:30;;;;;;;7.35;5.93;;;17.70;99.90;;;;;;2079143;28;20078;-68
2021/06/08 01:29:33;;;;;;;6.78;6.10;;;17.60;99.90;;;;;;2084049;28;20384;-68
2021/06/08 01:30:37;;;;;;;6.78;5.93;;;17.60;99.90;;;;;;2079116;28;20373;-68
2021/06/08 01:31:39;;;;;;;5.65;5.10;;;17.60;99.90;;;;;;2072967;28;20120;-68
2021/06/08 01:32:42;;;;;;;5.68;5.18;;;17.60;99.90;;;;;;2078828;28;20018;-68
2021/06/08 01:33:49;;;;;;;6.50;5.70;;;17.60;99.90;;;;;;2079051;28;20044;-68
2021/06/08 01:34:51;;;;;;;5.50;5.10;;;17.60;99.90;;;;;;2090787;28;20068;-68
2021/06/08 01:35:54;;;;;;;6.25;5.75;;;17.60;99.90;;;;;;2082383;27;20388;-68
2021/06/08 01:36:55;;;;;;;5.90;5.45;;;17.60;99.90;;;;;;2079748;28;20024;-68
2021/06/08 01:37:56;;;;;;;6.57;5.90;;;17.60;99.90;;;;;;2079169;28;20014;-68
2021/06/08 01:38:56;;;;;;;6.60;5.80;;;17.60;99.90;;;;;;2097539;28;20076;-68
2021/06/08 01:39:58;;;;;;;5.82;5.40;;;17.60;99.90;;;;;;2079138;28;20030;-68
2021/06/08 01:40:58;;;;;;;5.88;4.75;;;17.60;99.90;;;;;;2071694;28;20042;-68
2021/06/08 01:42:00;;;;;;;5.10;4.60;;;17.60;99.90;;;;;;2072134;28;20041;-68
2021/06/08 01:43:00;;;;;;;5.47;5.07;;;17.60;99.90;;;;;;2085756;28;20034;-68
2021/06/08 01:44:03;;;;;;;8.55;5.68;;;17.60;99.90;;;;;;2084612;28;20036;-68
2021/06/08 01:45:05;;;;;;;6.90;5.82;;;17.60;99.90;;;;;;2086219;27;20036;-68
2021/06/08 01:46:07;;;;;;;6.18;5.25;;;17.60;99.90;;;;;;2079219;28;20133;-68
2021/06/08 01:47:08;;;;;;;6.00;5.40;;;17.60;99.90;;;;;;2078754;28;20105;-68
2021/06/08 01:48:08;;;;;;;5.15;4.75;;;17.60;99.90;;;;;;2083914;28;20372;-68
2021/06/08 01:49:09;;;;;;;5.65;5.15;;;17.60;99.90;;;;;;2083456;28;20017;-68
2021/06/08 01:50:10;;;;;;;5.63;4.90;;;17.60;99.90;;;;;;2079192;28;20032;-68
2021/06/08 01:51:34;;;;;;;7.53;5.90;;;17.60;99.90;;;;;;2087869;28;20429;-68
2021/06/08 01:52:55;;;;;;;6.45;5.90;;;17.60;99.90;;;;;;2070646;28;20026;-68
2021/06/08 01:54:19;;;;;;;7.07;6.47;;;17.60;99.90;;;;;;2077072;28;20022;-68
2021/06/08 01:55:29;;;;;;;10.65;6.80;;;17.50;99.90;;;;;;2085398;28;20419;-68
2021/06/08 01:56:31;;;;;;;5.22;4.82;;;17.50;99.90;;;;;;2118222;27;20462;-68
2021/06/08 01:57:48;;;;;;;7.32;6.68;;;17.50;99.90;;;;;;2078934;28;20048;-68
2021/06/08 01:59:25;;;;;;;6.78;6.25;;;17.50;99.90;;;;;;2078745;28;20086;-68
2021/06/08 02:00:42;;;;;;;7.93;7.15;;;17.50;99.90;;;;;;2078977;28;20055;-68
2021/06/08 02:02:03;;;;;;;6.70;6.20;;;17.50;99.90;;;;;;2079713;28;20116;-68
2021/06/08 02:03:24;;;;;;;7.53;5.22;;;17.50;99.90;;;;;;2082456;28;20057;-68
2021/06/08 02:04:27;;;;;;;8.55;6.65;;;17.50;99.90;;;;;;2084714;28;20028;-68
2021/06/08 02:05:31;;;;;;;7.93;7.18;;;17.50;99.90;;;;;;2074580;28;20029;-68
2021/06/08 02:06:42;;;;;;;8.50;7.07;;;17.50;99.90;;;;;;2083812;28;20021;-68
2021/06/08 02:08:13;;;;;;;8.40;7.70;;;17.50;99.90;;;;;;2087658;28;20029;-68
2021/06/08 02:09:45;;;;;;;7.63;6.78;;;17.50;99.90;;;;;;2071752;28;20022;-68
2021/06/08 02:10:52;;;;;;;8.73;8.00;;;17.50;99.90;;;;;;2095156;28;20033;-68
2021/06/08 02:12:02;;;;;;;8.80;8.00;;;17.50;99.90;;;;;;2086907;28;20452;-68
2021/06/08 02:13:31;;;;;;;7.88;7.15;;;17.50;99.90;;;;;;2084631;28;20544;-68
2021/06/08 02:14:59;;;;;;;8.43;7.60;;;17.50;99.90;;;;;;2079619;28;20060;-68
2021/06/08 02:16:10;;;;;;;8.73;7.72;;;17.40;99.90;;;;;;2079795;28;20082;-68
2021/06/08 02:17:16;;;;;;;7.30;6.70;;;17.40;99.90;;;;;;2079776;28;20030;-68
2021/06/08 02:18:18;;;;;;;5.38;4.93;;;17.50;99.90;;;;;;2080556;28;20140;-68
2021/06/08 02:19:23;;;;;;;9.13;7.63;;;17.50;99.90;;;;;;2081996;28;20428;-68
2021/06/08 02:20:26;;;;;;;6.85;6.15;;;17.40;99.90;;;;;;2086414;27;20105;-68
2021/06/08 02:21:38;;;;;;;8.02;7.30;;;17.40;99.90;;;;;;2081249;28;20036;-68
2021/06/08 02:22:43;;;;;;;9.00;8.13;;;17.50;99.90;;;;;;2085390;28;20372;-68
2021/06/08 02:23:47;;;;;;;9.88;8.48;;;17.50;99.90;;;;;;2084986;28;20025;-68
2021/06/08 02:24:48;;;;;;;7.97;7.28;;;17.50;99.90;;;;;;2080770;28;20597;-68
2021/06/08 02:25:51;;;;;;;9.55;7.00;;;17.50;99.90;;;;;;2080480;28;20101;-68
2021/06/08 02:26:55;;;;;;;8.90;6.72;;;17.50;99.90;;;;;;2081486;28;20660;-68
2021/06/08 02:27:58;;;;;;;7.45;6.75;;;17.50;99.90;;;;;;2081323;28;20085;-68
2021/06/08 02:29:00;;;;;;;8.98;8.18;;;17.50;99.90;;;;;;2082814;28;20022;-68
2021/06/08 02:30:01;;;;;;;8.60;7.72;;;17.50;99.90;;;;;;2089812;28;20021;-68
2021/06/08 02:31:04;;;;;;;8.32;7.63;;;17.60;99.90;;;;;;2085292;28;20061;-68
2021/06/08 02:32:07;;;;;;;8.05;7.25;;;17.60;99.90;;;;;;2080754;28;20060;-68
2021/06/08 02:33:09;;;;;;;8.50;7.75;;;17.60;99.90;;;;;;2083420;28;20442;-68
2021/06/08 02:34:11;;;;;;;8.55;7.00;;;17.60;99.90;;;;;;2081463;28;20030;-68
2021/06/08 02:35:13;;;;;;;7.47;6.78;;;17.60;99.90;;;;;;2083973;27;20488;-68
2021/06/08 02:36:14;;;;;;;8.57;7.78;;;17.60;99.90;;;;;;2088197;28;20017;-68
2021/06/08 02:37:18;;;;;;;9.05;8.15;;;17.60;99.90;;;;;;2081200;28;20073;-68
2021/06/08 02:38:20;;;;;;;8.30;7.55;;;17.60;99.90;;;;;;2081679;28;20029;-68
2021/06/08 02:39:23;;;;;;;8.20;7.25;;;17.60;99.90;;;;;;2081274;28;20025;-68
2021/06/08 02:40:24;;;;;;;7.53;6.90;;;17.60;99.90;;;;;;2080525;28;20022;-68
2021/06/08 02:41:25;;;;;;;8.25;7.45;;;17.60;99.90;;;;;;2080072;28;20505;-68
2021/06/08 02:42:26;;;;;;;7.35;6.65;;;17.60;99.90;;;;;;2095035;27;20488;-68
2021/06/08 02:43:28;;;;;;;10.05;7.78;;;17.60;99.90;;;;;;2088774;27;20033;-68
2021/06/08 02:44:30;;;;;;;7.90;6.90;;;17.60;99.90;;;;;;2088402;28;20025;-68
2021/06/08 02:45:32;;;;;;;9.52;8.60;;;17.60;99.90;;;;;;2081000;28;20017;-68
2021/06/08 02:46:33;;;;;;;11.65;8.10;;;17.60;99.90;;;;;;2081880;28;20029;-68
2021/06/08 02:47:35;;;;;;;8.80;7.82;;;17.60;99.90;;;;;;2084776;27;20041;-68
2021/06/08 02:48:40;;;;;;;9.55;8.18;;;17.60;99.90;;;;;;2108525;27;20033;-68
2021/06/08 02:49:41;;;;;;;10.30;8.15;;;17.70;99.90;;;;;;2081003;28;20021;-68
2021/06/08 02:50:45;;;;;;;9.55;8.65;;;17.70;99.90;;;;;;2081064;28;20437;-68
2021/06/08 02:51:46;;;;;;;9.18;7.93;;;17.70;99.90;;;;;;2082690;28;20372;-68
2021/06/08 02:52:46;;;;;;;8.88;8.07;;;17.70;99.90;;;;;;2088078;28;20017;-68
2021/06/08 02:53:48;;;;;;;9.07;8.20;;;17.70;99.90;;;;;;2081136;28;20096;-68
2021/06/08 02:54:51;;;;;;;9.85;8.43;;;17.70;99.90;;;;;;2081440;28;20025;-68
2021/06/08 02:55:52;;;;;;;7.93;7.15;;;17.70;99.90;;;;;;2110673;27;20015;-68
2021/06/08 02:56:55;;;;;;;12.52;9.85;;;17.70;99.90;;;;;;2102029;27;20022;-68
2021/06/08 02:57:57;;;;;;;10.70;9.10;;;17.70;99.90;;;;;;2080770;28;20112;-68
2021/06/08 02:59:00;;;;;;;11.77;10.57;;;17.70;99.90;;;;;;2080596;28;20055;-68
2021/06/08 03:00:06;;;;;;;10.65;9.57;;;17.60;99.90;;;;;;2083825;28;20149;-68
2021/06/08 03:01:10;;;;;;;10.75;9.23;;;17.60;99.90;;;;;;2089497;28;20104;-68
2021/06/08 03:02:14;;;;;;;9.63;7.68;;;17.70;99.90;;;;;;2083604;27;20072;-68
2021/06/08 03:03:19;;;;;;;12.25;9.07;;;17.60;99.90;;;;;;2080264;28;20036;-68
2021/06/08 03:04:22;;;;;;;12.93;8.88;;;17.70;99.90;;;;;;2080057;28;20118;-68
2021/06/08 03:05:25;;;;;;;9.90;8.88;;;17.70;99.90;;;;;;2084896;28;20037;-68
2021/06/08 03:06:32;;;;;;;9.52;8.55;;;17.70;99.90;;;;;;2080992;28;20074;-68
2021/06/08 03:07:36;;;;;;;10.00;9.10;;;17.70;99.90;;;;;;2081391;28;20045;-68
2021/06/08 03:08:48;;;;;;;9.38;8.48;;;17.70;99.90;;;;;;2080608;28;20025;-68
2021/06/08 03:10:00;;;;;;;9.38;8.50;;;17.70;99.90;;;;;;2080637;28;20017;-68
2021/06/08 03:11:06;;;;;;;10.15;9.15;;;17.70;99.90;;;;;;2081309;28;20085;-68
2021/06/08 03:12:10;;;;;;;9.65;8.18;;;17.70;99.90;;;;;;2089232;28;20036;-68
2021/06/08 03:13:13;;;;;;;9.10;8.20;;;17.70;99.90;;;;;;2081646;28;20391;-68
2021/06/08 03:14:16;;;;;;;10.23;8.90;;;17.70;99.90;;;;;;2081260;28;20036;-68
2021/06/08 03:15:18;;;;;;;11.07;9.88;;;17.70;99.90;;;;;;2089788;27;20021;-68
2021/06/08 03:16:20;;;;;;;9.05;8.15;;;17.70;99.90;;;;;;2089396;28;20029;-68
2021/06/08 03:17:24;;;;;;;8.75;7.95;;;17.80;99.90;;;;;;2089821;27;20017;-68
2021/06/08 03:18:31;;;;;;;10.35;9.13;;;17.80;99.90;;;;;;2082544;28;20033;-68
2021/06/08 03:19:34;;;;;;;8.93;8.10;;;17.80;99.90;;;;;;2080718;28;20024;-68
2021/06/08 03:20:56;;;;;;;11.95;9.02;;;17.80;99.90;;;;;;2080573;28;20017;-68
2021/06/08 03:21:59;;;;;;;12.00;10.80;;;17.80;99.90;;;;;;2081135;28;20057;-68
2021/06/08 03:23:02;;;;;;;13.02;11.52;;;17.70;99.90;;;;;;2080912;28;20033;-68
2021/06/08 03:24:06;;;;;;;12.40;10.82;;;17.80;99.90;;;;;;2082098;28;20025;-68
2021/06/08 03:25:09;;;;;;;11.57;10.38;;;17.70;99.90;;;;;;2089132;28;20013;-68
2021/06/08 03:26:12;;;;;;;12.35;11.15;;;17.80;99.90;;;;;;2089311;28;20435;-68
2021/06/08 03:27:13;;;;;;;11.82;10.68;;;17.80;99.90;;;;;;2080852;28;20030;-68
2021/06/08 03:28:17;;;;;;;12.23;9.82;;;17.80;99.90;;;;;;2084398;27;20025;-68
2021/06/08 03:29:19;;;;;;;14.82;10.15;;;17.80;99.90;;;;;;2081016;28;20090;-68
2021/06/08 03:30:22;;;;;;;12.02;10.80;;;17.80;99.90;;;;;;2081405;28;20021;-68
2021/06/08 03:31:25;;;;;;;10.77;9.57;;;17.70;99.90;;;;;;2080819;28;20043;-68
2021/06/08 03:32:27;;;;;;;12.10;10.40;;;17.80;99.90;;;;;;2080859;28;20478;-68
2021/06/08 03:33:29;;;;;;;11.98;10.77;;;17.80;99.90;;;;;;2080679;28;20422;-68
2021/06/08 03:34:32;;;;;;;12.93;10.98;;;17.80;99.90;;;;;;2080928;27;20068;-68
2021/06/08 03:35:34;;;;;;;11.00;10.00;;;17.80;99.90;;;;;;2109308;27;20027;-68
2021/06/08 03:36:35;;;;;;;11.40;10.30;;;17.80;99.90;;;;;;2103674;27;20027;-68
2021/06/08 03:37:36;;;;;;;12.07;10.93;;;17.80;99.90;;;;;;2117215;27;20019;-68
2021/06/08 03:38:39;;;;;;;10.80;9.75;;;17.80;99.90;;;;;;2120212;27;20477;-68
2021/06/08 03:39:41;;;;;;;11.57;10.48;;;17.80;99.90;;;;;;2081100;28;20017;-68
2021/06/08 03:40:42;;;;;;;11.07;10.07;;;17.80;99.90;;;;;;2076462;28;20018;-68
2021/06/08 03:41:44;;;;;;;13.05;9.63;;;17.80;99.90;;;;;;2072702;28;20040;-68
2021/06/08 03:42:46;;;;;;;11.75;10.65;;;17.80;99.90;;;;;;2099971;27;20145;-68
2021/06/08 03:43:47;;;;;;;13.18;10.70;;;17.80;99.90;;;;;;2082804;28;20105;-68
2021/06/08 03:44:47;;;;;;;10.23;9.25;;;17.80;99.90;;;;;;2087306;28;20032;-68
2021/06/08 03:45:49;;;;;;;10.57;8.90;;;17.80;99.90;;;;;;2088715;28;20017;-68
2021/06/08 03:46:51;;;;;;;10.43;9.45;;;17.90;99.90;;;;;;2082978;28;20025;-68
2021/06/08 03:47:55;;;;;;;11.60;10.40;;;17.80;99.90;;;;;;2097026;27;20456;-68
2021/06/08 03:48:57;;;;;;;11.90;10.77;;;17.90;99.90;;;;;;2093539;27;20044;-68
2021/06/08 03:49:58;;;;;;;13.25;9.65;;;17.80;99.90;;;;;;2081569;28;20029;-68
2021/06/08 03:51:00;;;;;;;11.52;10.20;;;17.90;99.90;;;;;;2089535;28;20053;-68
2021/06/08 03:52:01;;;;;;;11.55;10.45;;;17.90;99.90;;;;;;2088973;28;20377;-68
2021/06/08 03:53:03;;;;;;;11.60;10.50;;;17.80;99.90;;;;;;2085857;28;20037;-68
2021/06/08 03:54:04;;;;;;;12.00;10.77;;;17.90;99.90;;;;;;2080699;28;20480;-68
2021/06/08 03:55:05;;;;;;;11.40;10.32;;;17.90;99.90;;;;;;2081174;28;20435;-68
2021/06/08 03:56:09;;;;;;;11.50;10.40;;;17.90;99.90;;;;;;2120824;27;20370;-68
2021/06/08 03:57:11;;;;;;;13.02;11.75;;;17.90;99.90;;;;;;2090706;27;20025;-68
2021/06/08 03:58:14;;;;;;;11.80;10.63;;;17.90;99.90;;;;;;2080520;28;20056;-68
2021/06/08 03:59:16;;;;;;;13.38;11.00;;;17.80;99.90;;;;;;2080925;28;20029;-68
2021/06/08 04:00:18;;;;;;;13.05;11.70;;;17.90;99.90;;;;;;2080705;28;20040;-68
2021/06/08 04:01:20;;;;;;;15.57;11.70;;;17.90;99.90;;;;;;2081187;28;20028;-68
2021/06/08 04:02:21;;;;;;;12.07;10.98;;;17.90;99.90;;;;;;2082188;28;20120;-68
2021/06/08 04:03:23;;;;;;;12.95;11.73;;;17.90;99.90;;;;;;2084682;28;20036;-68
2021/06/08 04:04:24;;;;;;;13.82;12.52;;;17.90;99.90;;;;;;2088424;28;20124;-68
2021/06/08 04:05:25;;;;;;;11.95;10.95;;;17.90;99.90;;;;;;2085275;28;20037;-68
2021/06/08 04:06:26;;;;;;;13.80;11.88;;;17.90;99.90;;;;;;2079572;28;20037;-68
2021/06/08 04:07:26;;;;;;;11.77;10.57;;;17.90;99.90;;;;;;2078858;28;20535;-68
2021/06/08 04:08:28;;;;;;;13.40;12.00;;;17.90;99.90;;;;;;2078376;28;20461;-68
2021/06/08 04:09:28;;;;;;;12.98;11.68;;;17.90;99.90;;;;;;2080360;28;20037;-68
2021/06/08 04:10:29;;;;;;;13.15;11.20;;;17.90;99.90;;;;;;2084915;27;20149;-68
2021/06/08 04:11:30;;;;;;;13.48;12.07;;;17.90;99.90;;;;;;2079317;28;20436;-68
2021/06/08 04:12:31;;;;;;;14.18;10.38;;;17.90;99.90;;;;;;2079183;28;20076;-68
2021/06/08 04:13:31;;;;;;;13.40;12.00;;;17.90;99.90;;;;;;2080255;28;20108;-68
2021/06/08 04:14:32;;;;;;;12.40;11.15;;;17.90;99.90;;;;;;2082090;28;20030;-68
2021/06/08 04:15:35;;;;;;;13.73;12.30;;;17.90;99.90;;;;;;2087970;28;20059;-68
2021/06/08 04:16:36;;;;;;;14.10;12.55;;;17.90;99.90;;;;;;2079197;28;20166;-68
2021/06/08 04:17:37;;;;;;;13.88;12.30;;;17.90;99.90;;;;;;2079403;28;20054;-68
2021/06/08 04:18:39;;;;;;;14.88;12.35;;;17.90;99.90;;;;;;2079374;28;20033;-68
2021/06/08 04:19:42;;;;;;;16.38;13.05;;;17.90;99.90;;;;;;2079403;28;20022;-68
2021/06/08 04:20:42;;;;;;;11.73;10.63;;;17.90;99.90;;;;;;2079106;28;20057;-68
2021/06/08 04:21:47;;;;;;;12.63;10.43;;;17.90;99.90;;;;;;2087439;28;20036;-68
2021/06/08 04:22:56;;;;;;;11.75;10.65;;;18.00;99.90;;;;;;2075150;28;20030;-68
2021/06/08 04:24:03;;;;;;;13.90;12.32;;;18.00;99.90;;;;;;2079618;28;20038;-68
2021/06/08 04:25:07;;;;;;;17.58;11.85;;;18.00;99.90;;;;;;2071297;28;20034;-68
2021/06/08 04:26:08;;;;;;;14.07;12.43;;;18.00;99.90;;;;;;2075516;28;20041;-68
2021/06/08 04:27:08;;;;;;;15.93;12.82;;;18.00;99.90;;;;;;2078455;28;20025;-68
2021/06/08 04:28:09;;;;;;;13.60;12.20;;;18.00;99.90;;;;;;2079365;28;20133;-68
2021/06/08 04:29:10;;;;;;;13.50;12.20;;;18.00;99.90;;;;;;2079751;28;20036;-68
2021/06/08 04:30:11;;;;;;;13.70;12.38;;;18.00;99.90;;;;;;2084874;28;20493;-68
2021/06/08 04:31:12;;;;;;;14.50;13.10;;;18.00;99.90;;;;;;2084596;27;20033;-68
2021/06/08 04:32:13;;;;;;;13.30;11.15;;;18.10;99.90;;;;;;2083295;27;20112;-68
2021/06/08 04:33:14;;;;;;;13.68;12.35;;;18.10;99.90;;;;;;2078294;28;20444;-68
2021/06/08 04:34:22;;;;;;;14.82;12.85;;;18.10;99.90;;;;;;2078307;28;20104;-68
2021/06/08 04:35:22;;;;;;;13.75;12.50;;;18.10;99.90;;;;;;2092537;27;20044;-68
2021/06/08 04:36:25;;;;;;;13.25;11.85;;;18.10;99.90;;;;;;2082043;28;20025;-68
2021/06/08 04:37:26;;;;;;;13.27;11.93;;;18.10;99.90;;;;;;2085872;28;20101;-68
2021/06/08 04:38:27;;;;;;;14.15;12.75;;;18.10;99.90;;;;;;2084338;28;20017;-68
2021/06/08 04:39:27;;;;;;;13.90;12.55;;;18.10;99.90;;;;;;2087077;28;20032;-68
2021/06/08 04:40:29;;;;;;;14.13;12.77;;;18.20;99.90;;;;;;2082420;28;20041;-68
2021/06/08 04:41:29;;;;;;;15.13;13.52;;;18.20;99.90;;;;;;2074514;28;20034;-68
2021/06/08 04:42:30;;;;;;;13.27;12.07;;;18.20;99.90;;;;;;2092061;27;20023;-68
2021/06/08 04:43:31;;;;;;;15.88;14.20;;;18.20;99.90;;;;;;2084065;27;20013;-68
2021/06/08 04:44:32;;;;;;;16.42;14.48;;;18.20;99.90;;;;;;2076721;28;20486;-68
2021/06/08 04:45:32;;;;;;;15.45;13.93;;;18.30;99.90;;;;;;2074859;28;20137;-68
2021/06/08 04:46:39;;;;;;;16.40;14.75;;;18.30;99.90;;;;;;2077097;28;20021;-68
2021/06/08 04:47:40;;;;;;;13.73;12.52;;;18.30;99.90;;;;;;2088923;27;20046;-68
2021/06/08 04:48:42;;;;;;;14.52;13.02;;;18.30;99.90;;;;;;2084614;28;20018;-68
2021/06/08 04:49:43;;;;;;;16.33;14.63;;;18.30;99.90;;;;;;2081497;27;20105;-68
2021/06/08 04:50:44;;;;;;;15.88;14.35;;;18.30;99.90;;;;;;2073144;28;20022;-68
2021/06/08 04:51:44;;;;;;;19.85;14.45;;;18.30;99.90;;;;;;2075601;28;20469;-68
2021/06/08 04:52:45;;;;;;;14.65;13.15;;;18.30;99.90;;;;;;2071677;28;20047;-68
2021/06/08 04:53:45;;;;;;;15.30;13.93;;;18.40;99.90;;;;;;2077276;27;20040;-68
2021/06/08 04:54:46;;;;;;;15.00;13.45;;;18.40;99.90;;;;;;2084598;27;20018;-68
2021/06/08 04:55:46;;;;;;;16.98;15.30;;;18.40;99.90;;;;;;2086911;27;20086;-68
2021/06/08 04:56:47;;;;;;;15.80;14.40;;;18.40;99.90;;;;;;2077984;28;20017;-68
2021/06/08 04:57:48;;;;;;;16.60;15.00;;;18.40;99.90;;;;;;2086768;27;20092;-68
2021/06/08 04:58:48;;;;;;;15.27;13.65;;;18.40;99.90;;;;;;2073350;28;20115;-68
2021/06/08 05:00:08;;;;;;;13.35;12.05;;;18.40;99.90;;;;;;2085781;27;20028;-68
2021/06/08 05:01:20;;;;;;;15.48;13.95;;;18.50;99.90;;;;;;2079360;27;20056;-68
2021/06/08 05:02:48;;;;;;;14.93;13.50;;;18.50;99.90;;;;;;2084232;27;20029;-68
2021/06/08 05:03:52;;;;;;;16.13;14.52;;;18.50;99.90;;;;;;2086035;27;20051;-68
2021/06/08 05:04:54;;;;;;;16.33;14.88;;;18.50;99.90;;;;;;2081338;28;20029;-68
2021/06/08 05:05:57;;;;;;;15.80;14.30;;;18.50;99.90;;;;;;2079313;28;20034;-68
2021/06/08 05:07:00;;;;;;;17.98;14.27;;;18.50;99.90;;;;;;2079264;28;20496;-68
2021/06/08 05:08:09;;;;;;;16.15;14.63;;;18.50;99.90;;;;;;2082581;28;20082;-68
2021/06/08 05:09:16;;;;;;;15.52;14.13;;;18.60;99.90;;;;;;2080594;28;20105;-68
2021/06/08 05:10:18;;;;;;;15.27;13.98;;;18.60;99.90;;;;;;2082326;28;20017;-68
2021/06/08 05:11:30;;;;;;;15.68;14.10;;;18.60;99.90;;;;;;2079917;28;20027;-68
2021/06/08 05:12:33;;;;;;;16.10;14.45;;;18.60;99.90;;;;;;2079147;28;20025;-68
2021/06/08 05:13:36;;;;;;;15.43;13.82;;;18.60;99.90;;;;;;2081017;28;20044;-68
2021/06/08 05:14:38;;;;;;;15.88;14.48;;;18.60;99.90;;;;;;2080784;28;20032;-68
2021/06/08 05:15:40;;;;;;;16.02;14.52;;;18.70;99.90;;;;;;2082371;28;20020;-68
2021/06/08 05:16:44;;;;;;;14.48;13.13;;;18.70;99.90;;;;;;2080595;28;20014;-68
2021/06/08 05:17:46;;;;;;;19.75;13.98;;;18.70;99.90;;;;;;2079697;28;20025;-68
2021/06/08 05:18:51;;;;;;;16.52;14.07;;;18.70;99.90;;;;;;2081688;28;20021;-68
2021/06/08 05:19:53;;;;;;;15.95;14.40;;;18.80;99.90;;;;;;2082668;27;20048;-68
2021/06/08 05:20:54;;;;;;;17.75;13.98;;;18.80;99.90;;;;;;2092190;27;20024;-68
2021/06/08 05:21:56;;;;;;;14.68;13.35;;;18.90;99.90;;;;;;2091974;27;20025;-68
2021/06/08 05:22:57;;;;;;;14.93;13.57;;;18.90;99.90;;;;;;2082650;28;20018;-68
2021/06/08 05:23:58;;;;;;;14.93;13.52;;;18.90;99.90;;;;;;2081209;28;20030;-68
2021/06/08 05:24:59;;;;;;;14.45;13.05;;;19.00;99.90;;;;;;2079866;27;20038;-68